createdAt,value
2019-06-26T00:00:56.844Z,86.20
2019-06-26T00:02:58.624Z,86.30
2019-06-26T00:05:00.330Z,86.60
2019-06-26T00:07:02.314Z,86.80
2019-06-26T00:09:05.693Z,86.90
2019-06-26T00:11:07.561Z,87.30
2019-06-26T00:13:22.073Z,87.40
2019-06-26T00:15:13.358Z,87.60
2019-06-26T00:17:15.033Z,87.80
2019-06-26T00:19:16.805Z,88.00
2019-06-26T00:21:21.874Z,88.00
2019-06-26T00:23:22.085Z,88.00
2019-06-26T00:25:23.781Z,88.00
2019-06-26T00:27:25.491Z,88.10
2019-06-26T00:29:27.167Z,88.20
2019-06-26T00:31:28.845Z,88.20
2019-06-26T00:33:30.540Z,88.30
2019-06-26T00:35:32.321Z,88.20
2019-06-26T00:37:34.098Z,87.90
2019-06-26T00:39:35.828Z,88.00
2019-06-26T00:41:37.843Z,88.10
2019-06-26T00:43:42.558Z,88.20
2019-06-26T00:45:43.139Z,88.60
2019-06-26T00:47:44.809Z,89.10
2019-06-26T00:49:46.489Z,89.50
2019-06-26T00:51:48.294Z,89.80
2019-06-26T00:53:49.972Z,90.20
2019-06-26T00:55:55.096Z,90.10
2019-06-26T00:57:55.570Z,90.10
2019-06-26T00:59:57.268Z,90.00
2019-06-26T01:01:59.236Z,90.20
2019-06-26T01:04:05.351Z,90.20
2019-06-26T01:06:09.245Z,90.30
2019-06-26T01:08:10.940Z,90.20
2019-06-26T01:10:13.085Z,90.10
2019-06-26T01:12:14.899Z,90.10
2019-06-26T01:14:16.576Z,90.10
2019-06-26T01:16:18.300Z,90.30
2019-06-26T01:18:20.056Z,90.60
2019-06-26T01:20:21.848Z,90.80
2019-06-26T01:22:23.804Z,90.90
2019-06-26T01:24:25.489Z,91.10
2019-06-26T01:26:27.185Z,91.20
2019-06-26T01:28:28.861Z,91.30
2019-06-26T01:30:30.645Z,91.30
2019-06-26T01:32:32.424Z,91.60
2019-06-26T01:34:34.105Z,91.50
2019-06-26T01:36:35.787Z,91.20
2019-06-26T01:38:37.472Z,91.00
2019-06-26T01:40:39.168Z,90.90
2019-06-26T01:42:40.945Z,90.90
2019-06-26T01:44:42.861Z,91.00
2019-06-26T01:46:44.601Z,91.00
2019-06-26T01:48:46.513Z,91.10
2019-06-26T01:50:48.433Z,91.10
2019-06-26T01:52:50.132Z,91.30
2019-06-26T01:54:51.808Z,91.70
2019-06-26T01:56:53.512Z,91.90
2019-06-26T01:58:56.030Z,92.40
2019-06-26T02:00:57.703Z,92.50
2019-06-26T02:02:59.473Z,92.60
2019-06-26T02:05:01.273Z,92.60
2019-06-26T02:07:02.967Z,92.90
2019-06-26T02:09:05.001Z,93.10
2019-06-26T02:11:06.901Z,93.10
2019-06-26T02:13:08.582Z,93.20
2019-06-26T02:15:10.682Z,93.10
2019-06-26T02:17:12.389Z,93.10
2019-06-26T02:19:14.869Z,93.20
2019-06-26T02:21:16.556Z,93.50
2019-06-26T02:23:18.257Z,93.80
2019-06-26T02:25:19.978Z,93.90
2019-06-26T02:27:21.747Z,93.90
2019-06-26T02:29:23.447Z,93.70
2019-06-26T02:31:25.224Z,94.00
2019-06-26T02:33:27.003Z,94.30
2019-06-26T02:35:28.793Z,94.20
2019-06-26T02:37:30.616Z,94.30
2019-06-26T02:39:32.301Z,94.30
2019-06-26T02:41:34.213Z,94.20
2019-06-26T02:43:35.880Z,94.30
2019-06-26T02:45:37.671Z,94.40
2019-06-26T02:47:39.394Z,94.60
2019-06-26T02:49:41.068Z,94.60
2019-06-26T02:51:42.845Z,94.80
2019-06-26T02:53:44.550Z,95.00
2019-06-26T02:55:46.223Z,95.20
2019-06-26T02:57:47.982Z,95.00
2019-06-26T02:59:49.704Z,94.90
2019-06-26T03:01:51.384Z,94.90
2019-06-26T03:03:53.167Z,95.00
2019-06-26T03:05:54.852Z,95.30
2019-06-26T03:07:56.569Z,95.50
2019-06-26T03:09:58.374Z,95.70
2019-06-26T03:12:00.146Z,95.90
2019-06-26T03:14:01.897Z,96.00
2019-06-26T03:16:03.578Z,96.00
2019-06-26T03:18:05.353Z,96.40
2019-06-26T03:20:07.684Z,96.50
2019-06-26T03:22:09.456Z,96.70
2019-06-26T03:24:11.132Z,96.60
2019-06-26T03:26:13.034Z,96.60
2019-06-26T03:28:14.711Z,96.70
2019-06-26T03:30:16.494Z,96.90
2019-06-26T03:32:18.197Z,97.10
2019-06-26T03:34:19.884Z,97.10
2019-06-26T03:36:21.660Z,97.20
2019-06-26T03:38:23.445Z,97.30
2019-06-26T03:40:25.225Z,97.30
2019-06-26T03:42:26.900Z,97.40
2019-06-26T03:44:28.608Z,97.30
2019-06-26T03:46:30.278Z,97.70
2019-06-26T03:48:31.953Z,97.80
2019-06-26T03:50:33.652Z,97.90
2019-06-26T03:52:35.421Z,98.10
2019-06-26T03:54:37.201Z,97.90
2019-06-26T03:56:38.932Z,98.00
2019-06-26T03:58:40.656Z,98.00
2019-06-26T04:00:43.007Z,98.00
2019-06-26T04:02:44.819Z,98.20
2019-06-26T04:04:46.775Z,98.30
2019-06-26T04:06:48.558Z,98.30
2019-06-26T04:08:50.417Z,98.30
2019-06-26T04:10:52.085Z,98.30
2019-06-26T04:12:53.766Z,98.30
2019-06-26T04:14:55.561Z,98.30
2019-06-26T04:16:57.257Z,98.30
2019-06-26T04:18:58.942Z,98.30
2019-06-26T04:21:00.676Z,98.30
2019-06-26T04:23:02.435Z,98.30
2019-06-26T04:25:04.517Z,98.30
2019-06-26T04:27:06.215Z,98.30
2019-06-26T04:29:07.892Z,98.30
2019-06-26T04:31:09.690Z,98.30
2019-06-26T04:33:11.370Z,98.30
2019-06-26T04:35:13.958Z,98.30
2019-06-26T04:37:15.637Z,98.30
2019-06-26T04:39:17.313Z,98.30
2019-06-26T04:41:19.137Z,98.30
2019-06-26T04:43:20.813Z,98.30
2019-06-26T04:45:23.042Z,98.30
2019-06-26T04:47:24.860Z,98.30
2019-06-26T04:49:26.537Z,98.30
2019-06-26T04:51:28.229Z,98.30
2019-06-26T04:53:30.143Z,98.30
2019-06-26T04:55:31.825Z,98.30
2019-06-26T04:57:33.502Z,98.30
2019-06-26T04:59:35.285Z,98.30
2019-06-26T05:01:37.035Z,98.30
2019-06-26T05:03:38.749Z,98.30
2019-06-26T05:05:40.426Z,98.30
2019-06-26T05:07:42.129Z,98.30
2019-06-26T05:09:43.816Z,98.30
2019-06-26T05:11:45.530Z,98.30
2019-06-26T05:13:47.197Z,98.30
2019-06-26T05:15:48.882Z,98.30
2019-06-26T05:17:50.565Z,98.30
2019-06-26T05:19:52.348Z,98.30
2019-06-26T05:21:54.085Z,98.30
2019-06-26T05:23:55.782Z,98.30
2019-06-26T05:25:57.470Z,98.30
2019-06-26T05:27:59.157Z,98.30
2019-06-26T05:30:00.959Z,98.30
2019-06-26T05:32:02.977Z,97.60
2019-06-26T05:34:04.782Z,97.90
2019-06-26T05:36:06.535Z,97.50
2019-06-26T05:38:08.238Z,97.10
2019-06-26T05:40:11.123Z,96.90
2019-06-26T05:42:12.801Z,97.00
2019-06-26T05:44:14.523Z,96.30
2019-06-26T05:46:30.006Z,96.00
2019-06-26T05:48:19.990Z,96.10
2019-06-26T05:50:22.019Z,96.30
2019-06-26T05:52:23.743Z,96.10
2019-06-26T05:54:25.467Z,96.30
2019-06-26T05:56:27.192Z,96.20
2019-06-26T05:58:28.986Z,96.70
2019-06-26T06:00:30.916Z,96.10
2019-06-26T06:02:32.891Z,96.50
2019-06-26T06:04:34.726Z,96.80
2019-06-26T06:06:41.590Z,96.90
2019-06-26T06:08:40.281Z,96.50
2019-06-26T06:10:42.230Z,96.60
2019-06-26T06:12:43.977Z,96.30
2019-06-26T06:14:45.699Z,95.80
2019-06-26T06:16:48.153Z,95.70
2019-06-26T06:18:49.959Z,96.00
2019-06-26T06:20:51.666Z,96.30
2019-06-26T06:22:53.426Z,96.20
2019-06-26T06:24:55.154Z,96.30
2019-06-26T06:26:56.874Z,95.70
2019-06-26T06:28:58.806Z,95.70
2019-06-26T06:31:00.847Z,95.90
2019-06-26T06:33:02.979Z,95.90
2019-06-26T06:35:04.975Z,95.90
2019-06-26T06:37:06.804Z,95.90
2019-06-26T06:39:08.581Z,95.80
2019-06-26T06:41:10.530Z,95.90
2019-06-26T06:43:13.021Z,96.00
2019-06-26T06:45:15.129Z,95.80
2019-06-26T06:47:16.904Z,95.80
2019-06-26T06:49:18.803Z,96.20
2019-06-26T06:51:20.525Z,95.90
2019-06-26T06:53:22.306Z,96.00
2019-06-26T06:55:24.137Z,95.90
2019-06-26T06:57:26.310Z,95.30
2019-06-26T06:59:28.031Z,95.40
2019-06-26T07:01:29.881Z,95.60
2019-06-26T07:03:31.591Z,95.60
2019-06-26T07:05:33.618Z,95.20
2019-06-26T07:07:35.586Z,95.30
2019-06-26T07:09:37.533Z,95.40
2019-06-26T07:11:39.251Z,95.40
2019-06-26T07:13:41.078Z,94.20
2019-06-26T07:15:42.896Z,93.50
2019-06-26T07:17:44.649Z,93.40
2019-06-26T07:19:46.426Z,93.00
2019-06-26T07:21:48.145Z,92.90
2019-06-26T07:23:50.106Z,92.80
2019-06-26T07:25:52.275Z,92.80
2019-06-26T07:27:54.186Z,93.50
2019-06-26T07:29:56.047Z,93.70
2019-06-26T07:31:57.893Z,94.00
2019-06-26T07:33:59.785Z,92.50
2019-06-26T07:36:01.526Z,92.60
2019-06-26T07:38:03.327Z,92.10
2019-06-26T07:40:05.728Z,92.20
2019-06-26T07:42:07.800Z,91.30
2019-06-26T07:44:09.640Z,91.50
2019-06-26T07:46:11.461Z,91.80
2019-06-26T07:48:13.270Z,91.60
2019-06-26T07:50:15.310Z,91.20
2019-06-26T07:52:17.066Z,91.00
2019-06-26T07:54:18.789Z,90.40
2019-06-26T07:56:20.737Z,90.50
2019-06-26T07:58:22.734Z,90.60
2019-06-26T08:00:24.704Z,89.90
2019-06-26T08:02:26.489Z,90.00
2019-06-26T08:04:28.234Z,88.70
2019-06-26T08:06:29.977Z,89.50
2019-06-26T08:08:31.681Z,88.80
2019-06-26T08:10:33.453Z,89.30
2019-06-26T08:12:35.249Z,89.90
2019-06-26T08:14:37.044Z,89.50
2019-06-26T08:16:40.204Z,88.60
2019-06-26T08:18:41.910Z,88.90
2019-06-26T08:20:55.346Z,88.90
2019-06-26T08:22:47.238Z,89.70
2019-06-26T08:24:48.986Z,89.50
2019-06-26T08:26:50.787Z,89.50
2019-06-26T08:28:52.526Z,89.50
2019-06-26T08:30:54.408Z,89.60
2019-06-26T08:32:56.106Z,90.10
2019-06-26T08:35:00.354Z,90.10
2019-06-26T08:37:02.330Z,89.90
2019-06-26T08:39:05.182Z,90.00
2019-06-26T08:41:06.906Z,90.00
2019-06-26T08:43:08.817Z,90.50
2019-06-26T08:45:11.158Z,90.40
2019-06-26T08:47:12.983Z,90.20
2019-06-26T08:49:24.931Z,89.00
2019-06-26T08:51:18.821Z,89.60
2019-06-26T08:53:20.667Z,87.60
2019-06-26T08:55:22.441Z,87.60
2019-06-26T08:57:24.182Z,87.10
2019-06-26T08:59:25.925Z,87.30
2019-06-26T09:01:27.654Z,87.80
2019-06-26T09:03:29.375Z,86.90
2019-06-26T09:05:47.014Z,87.40
2019-06-26T09:07:34.945Z,86.70
2019-06-26T09:09:36.697Z,87.00
2019-06-26T09:11:38.481Z,87.70
2019-06-26T09:13:40.235Z,87.50
2019-06-26T09:15:42.059Z,87.20
2019-06-26T09:17:43.929Z,87.20
2019-06-26T09:19:45.753Z,86.70
2019-06-26T09:21:47.513Z,86.60
2019-06-26T09:23:49.493Z,86.90
2019-06-26T09:25:51.425Z,87.70
2019-06-26T09:27:53.210Z,87.90
2019-06-26T09:29:54.963Z,88.40
2019-06-26T09:31:56.732Z,88.40
2019-06-26T09:33:58.474Z,88.60
2019-06-26T09:36:00.375Z,89.00
2019-06-26T09:38:02.349Z,88.90
2019-06-26T09:40:04.990Z,89.20
2019-06-26T09:42:19.357Z,88.70
2019-06-26T09:44:19.735Z,89.30
2019-06-26T09:46:21.535Z,89.10
2019-06-26T09:48:23.262Z,89.20
2019-06-26T09:50:25.071Z,88.80
2019-06-26T09:52:26.917Z,88.50
2019-06-26T09:54:28.811Z,88.50
2019-06-26T09:56:30.525Z,87.60
2019-06-26T09:58:32.262Z,87.90
2019-06-26T10:00:34.217Z,88.50
2019-06-26T10:02:36.478Z,88.70
2019-06-26T10:04:38.181Z,89.60
2019-06-26T10:06:39.944Z,89.80
2019-06-26T10:08:41.694Z,90.00
2019-06-26T10:10:43.567Z,89.10
2019-06-26T10:12:45.294Z,88.10
2019-06-26T10:14:48.133Z,88.30
2019-06-26T10:16:50.399Z,87.40
2019-06-26T10:19:05.740Z,87.20
2019-06-26T10:20:55.977Z,87.10
2019-06-26T10:22:57.703Z,88.20
2019-06-26T10:24:59.696Z,84.70
2019-06-26T10:27:01.558Z,85.50
2019-06-26T10:29:03.521Z,85.40
2019-06-26T10:31:05.462Z,85.40
2019-06-26T10:33:07.366Z,84.50
2019-06-26T10:36:01.813Z,84.60
2019-06-26T10:38:04.071Z,84.60
2019-06-26T10:40:06.264Z,86.40
2019-06-26T10:42:08.042Z,86.20
2019-06-26T10:44:09.770Z,85.10
2019-06-26T10:46:11.713Z,85.10
2019-06-26T10:48:13.484Z,83.10
2019-06-26T10:50:15.612Z,81.90
2019-06-26T10:52:17.438Z,81.20
2019-06-26T10:54:19.167Z,81.80
2019-06-26T10:56:21.424Z,82.30
2019-06-26T10:58:23.330Z,81.90
2019-06-26T11:00:25.467Z,82.50
2019-06-26T11:02:27.225Z,82.70
2019-06-26T11:04:28.990Z,81.30
2019-06-26T11:06:30.794Z,81.00
2019-06-26T11:08:32.518Z,80.90
2019-06-26T11:10:34.279Z,80.00
2019-06-26T11:12:36.298Z,78.80
2019-06-26T11:14:38.107Z,79.50
2019-06-26T11:16:39.886Z,79.10
2019-06-26T11:18:41.730Z,78.10
2019-06-26T11:20:43.432Z,79.00
2019-06-26T11:22:45.270Z,79.00
2019-06-26T11:24:47.012Z,78.50
2019-06-26T11:26:48.894Z,78.60
2019-06-26T11:28:50.630Z,79.50
2019-06-26T11:30:52.441Z,79.90
2019-06-26T11:32:54.184Z,80.30
2019-06-26T11:34:56.179Z,80.30
2019-06-26T11:37:03.676Z,79.50
2019-06-26T11:39:01.529Z,78.20
2019-06-26T11:41:03.479Z,77.00
2019-06-26T11:43:05.215Z,76.70
2019-06-26T11:45:07.814Z,76.30
2019-06-26T11:47:09.563Z,76.50
2019-06-26T11:49:11.420Z,75.90
2019-06-26T11:51:13.374Z,75.60
2019-06-26T11:53:15.373Z,76.30
2019-06-26T11:55:17.717Z,74.50
2019-06-26T11:57:19.665Z,74.50
2019-06-26T11:59:21.517Z,75.20
2019-06-26T12:01:23.369Z,76.70
2019-06-26T12:03:25.229Z,76.70
2019-06-26T12:05:27.177Z,74.80
2019-06-26T12:07:29.289Z,75.00
2019-06-26T12:09:31.065Z,74.20
2019-06-26T12:11:32.800Z,75.30
2019-06-26T12:13:34.528Z,75.40
2019-06-26T12:15:36.293Z,76.00
2019-06-26T12:17:38.023Z,76.40
2019-06-26T12:19:39.775Z,76.20
2019-06-26T12:21:41.485Z,76.50
2019-06-26T12:23:43.215Z,79.10
2019-06-26T12:25:44.959Z,80.10
2019-06-26T12:27:46.891Z,79.90
2019-06-26T12:29:48.631Z,78.70
2019-06-26T12:31:50.549Z,78.70
2019-06-26T12:33:52.286Z,77.90
2019-06-26T12:35:54.117Z,77.30
2019-06-26T12:37:55.846Z,76.50
2019-06-26T12:39:57.656Z,77.80
2019-06-26T12:41:59.646Z,78.90
2019-06-26T12:44:01.983Z,79.60
2019-06-26T12:46:03.877Z,79.40
2019-06-26T12:48:05.605Z,78.40
2019-06-26T12:50:07.949Z,79.20
2019-06-26T12:52:09.653Z,79.10
2019-06-26T12:54:11.470Z,78.90
2019-06-26T12:56:13.207Z,77.70
2019-06-26T12:58:19.747Z,78.20
2019-06-26T13:00:18.898Z,79.50
2019-06-26T13:02:20.714Z,80.60
2019-06-26T13:04:22.458Z,80.30
2019-06-26T13:06:24.198Z,80.80
2019-06-26T13:08:28.366Z,79.30
2019-06-26T13:10:30.171Z,78.20
2019-06-26T13:12:31.969Z,76.50
2019-06-26T13:14:33.758Z,77.60
2019-06-26T13:16:35.582Z,78.70
2019-06-26T13:18:37.294Z,78.90
2019-06-26T13:20:52.364Z,79.40
2019-06-26T13:22:42.617Z,78.30
2019-06-26T13:24:53.401Z,78.10
2019-06-26T13:26:55.113Z,79.90
2019-06-26T13:28:56.953Z,80.30
2019-06-26T13:30:58.690Z,80.00
2019-06-26T13:33:00.519Z,78.40
2019-06-26T13:35:02.530Z,77.60
2019-06-26T13:37:07.254Z,77.50
2019-06-26T13:39:07.935Z,77.20
2019-06-26T13:41:09.727Z,76.50
2019-06-26T13:43:11.442Z,75.20
2019-06-26T13:45:13.254Z,75.30
2019-06-26T13:47:15.746Z,76.80
2019-06-26T13:49:17.625Z,76.10
2019-06-26T13:51:21.564Z,76.60
2019-06-26T13:53:23.118Z,77.90
2019-06-26T13:55:24.882Z,79.20
2019-06-26T13:57:26.665Z,81.00
2019-06-26T13:59:28.505Z,79.80
2019-06-26T14:01:30.642Z,79.00
2019-06-26T14:03:32.421Z,79.70
2019-06-26T14:05:34.237Z,77.60
2019-06-26T14:07:36.130Z,77.50
2019-06-26T14:09:38.053Z,78.10
2019-06-26T14:11:39.783Z,77.90
2019-06-26T14:13:42.121Z,79.20
2019-06-26T14:15:44.122Z,80.10
2019-06-26T14:17:45.966Z,79.30
2019-06-26T14:19:47.736Z,79.30
2019-06-26T14:21:49.481Z,79.00
2019-06-26T14:23:51.313Z,78.70
2019-06-26T14:25:53.127Z,79.00
2019-06-26T14:27:54.879Z,78.60
2019-06-26T14:29:56.611Z,79.50
2019-06-26T14:31:58.442Z,80.70
2019-06-26T14:34:00.511Z,80.90
2019-06-26T14:36:02.325Z,80.00
2019-06-26T14:38:04.174Z,80.10
2019-06-26T14:40:05.947Z,80.00
2019-06-26T14:42:07.775Z,80.80
2019-06-26T14:44:09.513Z,80.50
2019-06-26T14:46:11.342Z,81.20
2019-06-26T14:48:13.070Z,80.80
2019-06-26T14:50:15.078Z,81.60
2019-06-26T14:52:16.801Z,81.50
2019-06-26T14:54:18.541Z,81.40
2019-06-26T14:56:20.295Z,82.30
2019-06-26T14:58:22.210Z,83.50
2019-06-26T15:00:24.125Z,83.50
2019-06-26T15:02:25.986Z,83.90
2019-06-26T15:04:27.830Z,83.20
2019-06-26T15:06:29.574Z,82.80
2019-06-26T15:08:31.293Z,82.30
2019-06-26T15:10:33.017Z,81.70
2019-06-26T15:12:34.935Z,82.10
2019-06-26T15:14:36.636Z,82.40
2019-06-26T15:16:38.495Z,82.20
2019-06-26T15:18:40.373Z,83.00
2019-06-26T15:21:12.068Z,83.00
2019-06-26T15:23:13.882Z,82.70
2019-06-26T15:25:15.800Z,83.50
2019-06-26T15:27:17.551Z,82.60
2019-06-26T15:29:19.303Z,83.00
2019-06-26T15:31:21.130Z,83.40
2019-06-26T15:33:22.846Z,83.80
2019-06-26T15:35:24.710Z,84.20
2019-06-26T15:37:26.557Z,84.00
2019-06-26T15:39:28.363Z,84.40
2019-06-26T15:41:30.295Z,84.90
2019-06-26T15:43:32.007Z,85.20
2019-06-26T15:45:33.761Z,86.00
2019-06-26T15:47:35.518Z,86.20
2019-06-26T15:49:37.258Z,86.00
2019-06-26T15:51:39.222Z,86.70
2019-06-26T15:53:40.965Z,86.40
2019-06-26T15:55:42.798Z,86.40
2019-06-26T15:57:44.542Z,86.50
2019-06-26T15:59:46.641Z,86.90
2019-06-26T16:01:48.394Z,87.20
2019-06-26T16:03:50.109Z,88.20
2019-06-26T16:05:51.845Z,89.00
2019-06-26T16:07:53.591Z,89.40
2019-06-26T16:09:55.471Z,89.00
2019-06-26T16:11:58.994Z,88.70
2019-06-26T16:14:00.984Z,89.30
2019-06-26T16:16:02.917Z,89.70
2019-06-26T16:18:16.706Z,89.30
2019-06-26T16:20:18.617Z,89.20
2019-06-26T16:22:31.754Z,88.90
2019-06-26T16:24:23.970Z,88.90
2019-06-26T16:26:25.857Z,88.80
2019-06-26T16:28:27.565Z,88.90
2019-06-26T16:30:29.281Z,89.10
2019-06-26T16:32:31.061Z,89.20
2019-06-26T16:34:32.819Z,89.00
2019-06-26T16:36:34.641Z,89.40
2019-06-26T16:38:36.502Z,89.30
2019-06-26T16:40:38.327Z,89.50
2019-06-26T16:42:40.176Z,89.70
2019-06-26T16:44:41.990Z,89.60
2019-06-26T16:46:43.708Z,89.90
2019-06-26T16:48:45.417Z,89.70
2019-06-26T16:50:47.540Z,90.30
2019-06-26T16:52:50.246Z,90.10
2019-06-26T16:54:52.093Z,88.80
2019-06-26T16:56:58.226Z,87.90
2019-06-26T16:59:00.002Z,87.90
2019-06-26T17:01:01.780Z,87.90
2019-06-26T17:03:03.843Z,87.90
2019-06-26T17:05:06.931Z,88.60
2019-06-26T17:07:08.759Z,88.70
2019-06-26T17:09:10.610Z,88.60
2019-06-26T17:11:12.402Z,88.70
2019-06-26T17:13:14.268Z,88.40
2019-06-26T17:15:16.779Z,88.40
2019-06-26T17:17:18.493Z,88.90
2019-06-26T17:19:20.375Z,88.70
2019-06-26T17:21:22.278Z,89.10
2019-06-26T17:23:24.022Z,88.80
2019-06-26T17:25:25.765Z,89.20
2019-06-26T17:27:27.591Z,89.50
2019-06-26T17:29:29.493Z,89.50
2019-06-26T17:31:31.189Z,89.40
2019-06-26T17:33:32.853Z,89.90
2019-06-26T17:35:34.560Z,89.60
2019-06-26T17:37:36.361Z,89.60
2019-06-26T17:39:38.092Z,89.30
2019-06-26T17:41:39.813Z,89.00
2019-06-26T17:43:41.504Z,89.00
2019-06-26T17:45:43.189Z,89.20
2019-06-26T17:47:44.889Z,89.00
2019-06-26T17:49:46.913Z,89.20
2019-06-26T17:51:48.698Z,89.80
2019-06-26T17:58:38.074Z,90.70
2019-06-26T18:00:39.800Z,90.50
2019-06-26T18:02:41.624Z,90.50
2019-06-26T18:04:43.309Z,90.40
2019-06-26T18:06:45.001Z,89.80
2019-06-26T18:08:46.705Z,90.00
2019-06-26T18:10:48.417Z,90.30
2019-06-26T18:12:50.108Z,89.80
2019-06-26T18:14:51.821Z,89.80
2019-06-26T18:16:53.545Z,89.80
2019-06-26T18:18:55.391Z,90.00
2019-06-26T18:20:57.073Z,90.20
2019-06-26T18:23:07.248Z,89.40
2019-06-26T18:25:03.506Z,89.60
2019-06-26T18:27:05.328Z,90.30
2019-06-26T18:29:07.180Z,89.60
2019-06-26T18:31:08.972Z,89.50
2019-06-26T18:33:10.660Z,89.50
2019-06-26T18:35:12.573Z,90.20
2019-06-26T18:37:14.385Z,90.50
2019-06-26T18:39:16.080Z,90.60
2019-06-26T18:41:18.752Z,90.80
2019-06-26T18:43:20.618Z,90.10
2019-06-26T18:45:22.507Z,90.40
2019-06-26T18:47:24.226Z,91.00
2019-06-26T18:49:25.921Z,91.20
2019-06-26T18:51:27.615Z,91.00
2019-06-26T18:53:29.308Z,91.30
2019-06-26T18:55:31.469Z,91.00
2019-06-26T18:57:33.261Z,91.30
2019-06-26T18:59:36.079Z,91.10
2019-06-26T19:01:37.832Z,91.10
2019-06-26T19:03:39.527Z,91.20
2019-06-26T19:05:41.486Z,91.40
2019-06-26T19:07:43.177Z,91.70
2019-06-26T19:09:44.872Z,91.50
2019-06-26T19:11:46.698Z,91.10
2019-06-26T19:13:48.384Z,91.00
2019-06-26T19:15:50.096Z,90.90
2019-06-26T19:17:51.830Z,90.90
2019-06-26T19:19:53.619Z,91.10
2019-06-26T19:21:55.316Z,91.20
2019-06-26T19:24:09.440Z,91.10
2019-06-26T19:26:00.622Z,91.10
2019-06-26T19:28:02.628Z,90.80
2019-06-26T19:30:05.008Z,91.00
2019-06-26T19:32:06.890Z,91.20
2019-06-26T19:34:08.724Z,91.40
2019-06-26T19:36:10.518Z,91.80
2019-06-26T19:38:12.209Z,92.00
2019-06-26T19:40:14.442Z,91.80
2019-06-26T19:42:16.298Z,91.80
2019-06-26T19:44:17.996Z,91.60
2019-06-26T19:46:19.685Z,92.30
2019-06-26T19:48:21.375Z,92.20
2019-06-26T19:50:23.736Z,92.30
2019-06-26T19:52:25.681Z,92.90
2019-06-26T19:54:31.907Z,92.40
2019-06-26T19:56:31.013Z,93.10
2019-06-26T19:58:32.929Z,92.90
2019-06-26T20:00:34.613Z,93.00
2019-06-26T20:02:36.416Z,93.00
2019-06-26T20:04:38.223Z,93.10
2019-06-26T20:06:41.009Z,93.50
2019-06-26T20:08:53.021Z,93.50
2019-06-26T20:10:46.412Z,93.40
2019-06-26T20:12:48.505Z,93.10
2019-06-26T20:14:50.221Z,92.30
2019-06-26T20:16:51.922Z,92.00
2019-06-26T20:18:53.678Z,92.40
2019-06-26T20:20:55.381Z,93.10
2019-06-26T20:22:57.188Z,93.20
2019-06-26T20:24:58.890Z,93.60
2019-06-26T20:27:00.606Z,93.50
2019-06-26T20:29:02.404Z,93.10
2019-06-26T20:31:04.151Z,92.90
2019-06-26T20:33:05.961Z,92.80
2019-06-26T20:35:08.456Z,93.00
2019-06-26T20:37:10.172Z,93.30
2019-06-26T20:39:11.881Z,93.80
2019-06-26T20:41:13.570Z,93.60
2019-06-26T20:43:15.360Z,93.20
2019-06-26T20:45:18.089Z,93.30
2019-06-26T20:47:19.780Z,92.80
2019-06-26T20:49:21.474Z,93.40
2019-06-26T20:51:23.186Z,92.80
2019-06-26T20:53:27.873Z,93.10
2019-06-26T20:55:28.482Z,92.80
2019-06-26T20:57:30.187Z,93.20
2019-06-26T20:59:31.991Z,93.50
2019-06-26T21:01:33.673Z,94.20
2019-06-26T21:03:35.429Z,93.70
2019-06-26T21:05:37.249Z,93.10
2019-06-26T21:07:38.962Z,93.00
2019-06-26T21:09:41.163Z,93.00
2019-06-26T21:11:42.863Z,92.70
2019-06-26T21:13:44.541Z,92.80
2019-06-26T21:15:46.459Z,92.90
2019-06-26T21:17:48.249Z,93.30
2019-06-26T21:19:49.965Z,93.60
2019-06-26T21:21:51.746Z,93.50
2019-06-26T21:23:53.523Z,94.10
2019-06-26T21:25:55.223Z,93.90
2019-06-26T21:27:56.916Z,94.00
2019-06-26T21:29:58.621Z,93.60
2019-06-26T21:32:00.301Z,93.80
2019-06-26T21:34:01.992Z,93.60
2019-06-26T21:36:03.693Z,93.10
2019-06-26T21:38:05.380Z,93.00
2019-06-26T21:40:07.397Z,93.00
2019-06-26T21:42:09.209Z,92.70
2019-06-26T21:44:10.909Z,92.70
2019-06-26T21:46:12.594Z,93.00
2019-06-26T21:48:14.740Z,92.90
2019-06-26T21:50:16.581Z,92.80
2019-06-26T21:52:18.655Z,92.90
2019-06-26T21:54:20.365Z,93.10
2019-06-26T21:56:22.166Z,92.90
2019-06-26T21:58:23.892Z,93.00
2019-06-26T22:00:27.613Z,92.60
2019-06-26T22:02:29.522Z,92.60
2019-06-26T22:04:31.241Z,92.70
2019-06-26T22:06:33.353Z,92.60
2019-06-26T22:08:35.067Z,92.60
2019-06-26T22:10:36.773Z,92.80
2019-06-26T22:12:38.957Z,92.50
2019-06-26T22:14:40.738Z,93.10
2019-06-26T22:16:42.800Z,92.90
2019-06-26T22:18:44.847Z,92.70
2019-06-26T22:20:47.209Z,92.80
2019-06-26T22:22:49.724Z,92.70
2019-06-26T22:24:51.899Z,92.50
2019-06-26T22:26:54.439Z,92.80
2019-06-26T22:28:56.203Z,92.90
2019-06-26T22:30:57.961Z,92.40
2019-06-26T22:32:59.673Z,92.90
2019-06-26T22:35:01.576Z,92.90
2019-06-26T22:37:03.603Z,92.10
2019-06-26T22:39:05.652Z,91.60
2019-06-26T22:41:07.553Z,91.80
2019-06-26T22:43:09.493Z,92.20
2019-06-26T22:45:12.494Z,92.50
2019-06-26T22:47:14.201Z,92.50
2019-06-26T22:49:16.015Z,92.70
2019-06-26T22:51:17.747Z,92.70
2019-06-26T22:53:19.455Z,92.70
2019-06-26T22:55:21.392Z,92.80
2019-06-26T22:57:23.094Z,92.50
2019-06-26T22:59:24.799Z,92.60
2019-06-26T23:01:26.534Z,92.40
2019-06-26T23:03:28.257Z,92.40
2019-06-26T23:05:30.290Z,92.50
2019-06-26T23:07:32.027Z,92.30
2019-06-26T23:09:33.752Z,92.00
2019-06-26T23:11:35.555Z,91.90
2019-06-26T23:13:37.289Z,91.80
2019-06-26T23:15:39.122Z,91.50
2019-06-26T23:17:40.830Z,91.50
2019-06-26T23:19:42.560Z,91.80
2019-06-26T23:21:44.355Z,92.10
2019-06-26T23:23:46.088Z,92.10
2019-06-26T23:25:47.811Z,92.20
2019-06-26T23:27:49.618Z,92.20
2019-06-26T23:29:51.343Z,92.30
2019-06-26T23:31:53.063Z,92.40
2019-06-26T23:33:54.802Z,92.80
2019-06-26T23:35:56.613Z,92.50
2019-06-26T23:37:58.401Z,92.80
2019-06-26T23:40:00.191Z,92.10
2019-06-26T23:42:01.946Z,92.60
2019-06-26T23:44:03.681Z,92.70
2019-06-26T23:46:05.395Z,92.50
2019-06-26T23:48:07.116Z,92.10
2019-06-26T23:50:09.054Z,91.70
2019-06-26T23:52:10.766Z,91.70
2019-06-26T23:54:12.502Z,91.60
2019-06-26T23:56:14.293Z,91.60
2019-06-26T23:58:16.006Z,92.00
